sensor_id;sensor_type;location;lat;lon;timestamp;temperature;humidity
34815;DHT22;21030;53.912;15.214;2023-04-03T00:01:06;29.10;18.80
34815;DHT22;21030;53.912;15.214;2023-04-03T00:03:33;29.20;18.80
34815;DHT22;21030;53.912;15.214;2023-04-03T00:06:01;29.00;18.60
34815;DHT22;21030;53.912;15.214;2023-04-03T00:08:29;29.00;18.70
34815;DHT22;21030;53.912;15.214;2023-04-03T00:10:57;29.00;18.70
34815;DHT22;21030;53.912;15.214;2023-04-03T00:13:25;28.60;18.70
34815;DHT22;21030;53.912;15.214;2023-04-03T00:15:52;28.50;18.80
34815;DHT22;21030;53.912;15.214;2023-04-03T00:18:20;28.50;18.90
34815;DHT22;21030;53.912;15.214;2023-04-03T00:20:48;27.90;19.00
34815;DHT22;21030;53.912;15.214;2023-04-03T00:23:15;27.70;19.30
34815;DHT22;21030;53.912;15.214;2023-04-03T00:25:43;27.70;19.20
34815;DHT22;21030;53.912;15.214;2023-04-03T00:28:10;28.10;19.10
34815;DHT22;21030;53.912;15.214;2023-04-03T00:30:38;28.10;19.10
34815;DHT22;21030;53.912;15.214;2023-04-03T00:33:05;28.60;18.90
34815;DHT22;21030;53.912;15.214;2023-04-03T00:35:34;28.20;18.90
34815;DHT22;21030;53.912;15.214;2023-04-03T00:38:01;27.90;18.90
34815;DHT22;21030;53.912;15.214;2023-04-03T00:40:34;27.70;19.00
34815;DHT22;21030;53.912;15.214;2023-04-03T00:43:04;27.50;19.00
34815;DHT22;21030;53.912;15.214;2023-04-03T00:45:43;27.50;18.90
34815;DHT22;21030;53.912;15.214;2023-04-03T00:48:15;27.50;18.80
34815;DHT22;21030;53.912;15.214;2023-04-03T00:50:44;27.80;18.90
34815;DHT22;21030;53.912;15.214;2023-04-03T00:53:16;27.60;18.70
34815;DHT22;21030;53.912;15.214;2023-04-03T00:55:44;27.60;18.80
34815;DHT22;21030;53.912;15.214;2023-04-03T00:58:12;27.70;18.70
34815;DHT22;21030;53.912;15.214;2023-04-03T01:00:43;28.40;18.50
34815;DHT22;21030;53.912;15.214;2023-04-03T01:03:11;28.50;18.10
34815;DHT22;21030;53.912;15.214;2023-04-03T01:05:39;28.70;18.10
34815;DHT22;21030;53.912;15.214;2023-04-03T01:08:07;29.10;17.90
34815;DHT22;21030;53.912;15.214;2023-04-03T01:10:34;28.80;17.80
34815;DHT22;21030;53.912;15.214;2023-04-03T01:13:34;28.80;18.00
34815;DHT22;21030;53.912;15.214;2023-04-03T01:16:04;28.80;18.00
34815;DHT22;21030;53.912;15.214;2023-04-03T01:18:32;28.10;18.00
34815;DHT22;21030;53.912;15.214;2023-04-03T01:23:45;28.60;18.10
34815;DHT22;21030;53.912;15.214;2023-04-03T01:26:13;28.50;18.10
34815;DHT22;21030;53.912;15.214;2023-04-03T01:28:41;28.60;18.00
34815;DHT22;21030;53.912;15.214;2023-04-03T01:33:47;29.00;17.90
34815;DHT22;21030;53.912;15.214;2023-04-03T01:36:21;29.00;17.80
34815;DHT22;21030;53.912;15.214;2023-04-03T01:38:49;28.70;17.90
34815;DHT22;21030;53.912;15.214;2023-04-03T01:41:17;28.50;18.00
34815;DHT22;21030;53.912;15.214;2023-04-03T01:43:44;29.10;17.80
34815;DHT22;21030;53.912;15.214;2023-04-03T01:46:11;28.70;17.70
34815;DHT22;21030;53.912;15.214;2023-04-03T01:48:38;28.40;17.90
34815;DHT22;21030;53.912;15.214;2023-04-03T01:51:06;28.10;17.90
34815;DHT22;21030;53.912;15.214;2023-04-03T01:53:33;28.20;18.00
34815;DHT22;21030;53.912;15.214;2023-04-03T01:56:00;28.60;17.70
34815;DHT22;21030;53.912;15.214;2023-04-03T01:58:27;29.00;17.50
34815;DHT22;21030;53.912;15.214;2023-04-03T02:00:54;28.40;17.50
34815;DHT22;21030;53.912;15.214;2023-04-03T02:03:21;28.60;17.50
34815;DHT22;21030;53.912;15.214;2023-04-03T02:05:49;28.80;17.50
34815;DHT22;21030;53.912;15.214;2023-04-03T02:08:17;29.00;17.30
34815;DHT22;21030;53.912;15.214;2023-04-03T02:10:47;29.00;17.20
34815;DHT22;21030;53.912;15.214;2023-04-03T02:13:14;29.20;17.20
34815;DHT22;21030;53.912;15.214;2023-04-03T02:15:42;29.20;17.10
34815;DHT22;21030;53.912;15.214;2023-04-03T02:18:09;28.90;17.00
34815;DHT22;21030;53.912;15.214;2023-04-03T02:20:37;28.30;17.40
34815;DHT22;21030;53.912;15.214;2023-04-03T02:23:06;27.90;17.50
34815;DHT22;21030;53.912;15.214;2023-04-03T02:25:33;27.80;17.60
34815;DHT22;21030;53.912;15.214;2023-04-03T02:28:04;27.80;17.70
34815;DHT22;21030;53.912;15.214;2023-04-03T02:30:31;27.70;17.80
34815;DHT22;21030;53.912;15.214;2023-04-03T02:32:58;27.70;17.50
34815;DHT22;21030;53.912;15.214;2023-04-03T02:35:26;28.20;17.40
34815;DHT22;21030;53.912;15.214;2023-04-03T02:37:53;28.70;17.30
34815;DHT22;21030;53.912;15.214;2023-04-03T02:40:20;28.50;17.00
34815;DHT22;21030;53.912;15.214;2023-04-03T02:42:47;28.30;17.10
34815;DHT22;21030;53.912;15.214;2023-04-03T02:45:14;28.90;17.10
34815;DHT22;21030;53.912;15.214;2023-04-03T02:47:41;29.00;16.90
34815;DHT22;21030;53.912;15.214;2023-04-03T02:50:08;28.70;16.80
34815;DHT22;21030;53.912;15.214;2023-04-03T02:52:36;28.70;17.50
34815;DHT22;21030;53.912;15.214;2023-04-03T02:55:04;28.60;17.10
34815;DHT22;21030;53.912;15.214;2023-04-03T02:57:32;28.80;17.00
34815;DHT22;21030;53.912;15.214;2023-04-03T02:59:59;28.50;16.90
34815;DHT22;21030;53.912;15.214;2023-04-03T03:02:26;28.60;17.00
34815;DHT22;21030;53.912;15.214;2023-04-03T03:04:53;28.80;16.90
34815;DHT22;21030;53.912;15.214;2023-04-03T03:07:20;28.90;16.90
34815;DHT22;21030;53.912;15.214;2023-04-03T03:09:47;28.60;16.90
34815;DHT22;21030;53.912;15.214;2023-04-03T03:12:15;28.50;17.10
34815;DHT22;21030;53.912;15.214;2023-04-03T03:14:42;28.80;17.00
34815;DHT22;21030;53.912;15.214;2023-04-03T03:17:09;28.70;16.90
34815;DHT22;21030;53.912;15.214;2023-04-03T03:19:36;28.50;16.80
34815;DHT22;21030;53.912;15.214;2023-04-03T03:22:04;28.60;16.90
34815;DHT22;21030;53.912;15.214;2023-04-03T03:24:31;28.40;17.10
34815;DHT22;21030;53.912;15.214;2023-04-03T03:26:58;28.30;17.00
34815;DHT22;21030;53.912;15.214;2023-04-03T03:29:25;28.20;17.10
34815;DHT22;21030;53.912;15.214;2023-04-03T03:31:52;28.00;17.10
34815;DHT22;21030;53.912;15.214;2023-04-03T03:34:19;28.10;17.10
34815;DHT22;21030;53.912;15.214;2023-04-03T03:36:46;28.40;17.00
34815;DHT22;21030;53.912;15.214;2023-04-03T03:39:13;28.60;17.00
34815;DHT22;21030;53.912;15.214;2023-04-03T03:41:40;28.60;17.00
34815;DHT22;21030;53.912;15.214;2023-04-03T03:44:07;28.10;17.00
34815;DHT22;21030;53.912;15.214;2023-04-03T03:46:35;28.90;17.00
34815;DHT22;21030;53.912;15.214;2023-04-03T03:49:02;28.90;16.90
34815;DHT22;21030;53.912;15.214;2023-04-03T03:51:29;29.20;16.90
34815;DHT22;21030;53.912;15.214;2023-04-03T03:53:56;29.20;16.90
34815;DHT22;21030;53.912;15.214;2023-04-03T03:56:23;29.40;16.80
34815;DHT22;21030;53.912;15.214;2023-04-03T03:58:50;29.40;16.80
34815;DHT22;21030;53.912;15.214;2023-04-03T04:01:17;29.30;17.00
34815;DHT22;21030;53.912;15.214;2023-04-03T04:03:44;29.60;16.80
34815;DHT22;21030;53.912;15.214;2023-04-03T04:06:12;29.40;16.80
34815;DHT22;21030;53.912;15.214;2023-04-03T04:08:39;29.70;16.80
34815;DHT22;21030;53.912;15.214;2023-04-03T04:11:07;29.70;16.80
34815;DHT22;21030;53.912;15.214;2023-04-03T04:13:34;29.80;16.80
34815;DHT22;21030;53.912;15.214;2023-04-03T04:16:01;29.90;16.90
34815;DHT22;21030;53.912;15.214;2023-04-03T04:18:28;29.40;17.00
34815;DHT22;21030;53.912;15.214;2023-04-03T04:20:56;29.20;17.20
34815;DHT22;21030;53.912;15.214;2023-04-03T04:23:23;29.10;17.40
34815;DHT22;21030;53.912;15.214;2023-04-03T04:25:50;29.20;17.50
34815;DHT22;21030;53.912;15.214;2023-04-03T04:28:18;29.30;17.50
34815;DHT22;21030;53.912;15.214;2023-04-03T04:30:45;29.00;17.70
34815;DHT22;21030;53.912;15.214;2023-04-03T04:33:12;28.90;17.50
34815;DHT22;21030;53.912;15.214;2023-04-03T04:35:42;29.20;17.80
34815;DHT22;21030;53.912;15.214;2023-04-03T04:38:10;29.50;17.60
34815;DHT22;21030;53.912;15.214;2023-04-03T04:40:37;29.80;17.50
34815;DHT22;21030;53.912;15.214;2023-04-03T04:43:04;30.00;17.40
34815;DHT22;21030;53.912;15.214;2023-04-03T04:45:31;30.00;17.40
34815;DHT22;21030;53.912;15.214;2023-04-03T04:47:58;30.30;17.40
34815;DHT22;21030;53.912;15.214;2023-04-03T04:50:26;30.50;17.40
34815;DHT22;21030;53.912;15.214;2023-04-03T04:52:53;30.80;17.30
34815;DHT22;21030;53.912;15.214;2023-04-03T04:55:20;31.00;17.20
34815;DHT22;21030;53.912;15.214;2023-04-03T04:57:47;31.20;17.20
34815;DHT22;21030;53.912;15.214;2023-04-03T05:00:15;31.20;17.40
34815;DHT22;21030;53.912;15.214;2023-04-03T05:02:42;31.20;17.10
34815;DHT22;21030;53.912;15.214;2023-04-03T05:05:09;31.30;17.00
34815;DHT22;21030;53.912;15.214;2023-04-03T05:07:36;31.10;17.10
34815;DHT22;21030;53.912;15.214;2023-04-03T05:10:04;31.10;17.20
34815;DHT22;21030;53.912;15.214;2023-04-03T05:12:31;31.10;17.70
34815;DHT22;21030;53.912;15.214;2023-04-03T05:14:58;30.70;17.20
34815;DHT22;21030;53.912;15.214;2023-04-03T05:17:25;30.60;17.30
34815;DHT22;21030;53.912;15.214;2023-04-03T05:19:53;30.50;17.40
34815;DHT22;21030;53.912;15.214;2023-04-03T05:22:20;29.90;17.50
34815;DHT22;21030;53.912;15.214;2023-04-03T05:24:47;30.30;17.40
34815;DHT22;21030;53.912;15.214;2023-04-03T05:27:14;30.30;17.40
34815;DHT22;21030;53.912;15.214;2023-04-03T05:29:41;30.60;17.30
34815;DHT22;21030;53.912;15.214;2023-04-03T05:32:11;30.60;17.20
34815;DHT22;21030;53.912;15.214;2023-04-03T05:34:38;30.90;17.10
34815;DHT22;21030;53.912;15.214;2023-04-03T05:37:05;30.70;17.10
34815;DHT22;21030;53.912;15.214;2023-04-03T05:39:32;30.80;17.30
34815;DHT22;21030;53.912;15.214;2023-04-03T05:42:00;30.70;17.10
34815;DHT22;21030;53.912;15.214;2023-04-03T05:44:27;30.90;17.10
34815;DHT22;21030;53.912;15.214;2023-04-03T05:46:54;31.10;17.00
34815;DHT22;21030;53.912;15.214;2023-04-03T05:49:21;31.20;16.90
34815;DHT22;21030;53.912;15.214;2023-04-03T05:51:48;31.20;16.80
34815;DHT22;21030;53.912;15.214;2023-04-03T05:54:22;31.20;16.90
34815;DHT22;21030;53.912;15.214;2023-04-03T05:56:50;30.70;17.10
34815;DHT22;21030;53.912;15.214;2023-04-03T05:59:18;30.50;17.30
34815;DHT22;21030;53.912;15.214;2023-04-03T06:01:45;30.00;17.50
34815;DHT22;21030;53.912;15.214;2023-04-03T06:04:13;29.40;17.80
34815;DHT22;21030;53.912;15.214;2023-04-03T06:09:11;29.30;17.90
34815;DHT22;21030;53.912;15.214;2023-04-03T06:11:38;29.50;18.00
34815;DHT22;21030;53.912;15.214;2023-04-03T06:14:06;29.30;18.10
34815;DHT22;21030;53.912;15.214;2023-04-03T06:16:33;28.50;18.40
34815;DHT22;21030;53.912;15.214;2023-04-03T06:19:08;28.80;18.60
34815;DHT22;21030;53.912;15.214;2023-04-03T06:21:36;28.80;18.50
34815;DHT22;21030;53.912;15.214;2023-04-03T06:24:04;28.90;18.40
34815;DHT22;21030;53.912;15.214;2023-04-03T06:26:33;29.00;18.90
34815;DHT22;21030;53.912;15.214;2023-04-03T06:29:00;28.10;19.00
34815;DHT22;21030;53.912;15.214;2023-04-03T06:31:28;28.20;19.20
34815;DHT22;21030;53.912;15.214;2023-04-03T06:33:56;28.50;19.20
34815;DHT22;21030;53.912;15.214;2023-04-03T06:36:23;29.60;19.10
34815;DHT22;21030;53.912;15.214;2023-04-03T06:38:51;29.60;19.00
34815;DHT22;21030;53.912;15.214;2023-04-03T06:41:18;30.00;19.00
34815;DHT22;21030;53.912;15.214;2023-04-03T06:43:45;29.50;19.60
34815;DHT22;21030;53.912;15.214;2023-04-03T06:46:21;28.40;20.20
34815;DHT22;21030;53.912;15.214;2023-04-03T06:48:49;29.10;20.90
34815;DHT22;21030;53.912;15.214;2023-04-03T06:51:21;29.30;20.60
34815;DHT22;21030;53.912;15.214;2023-04-03T06:53:50;28.90;21.10
34815;DHT22;21030;53.912;15.214;2023-04-03T06:56:18;27.80;21.30
34815;DHT22;21030;53.912;15.214;2023-04-03T06:58:45;27.20;22.00
34815;DHT22;21030;53.912;15.214;2023-04-03T07:01:14;27.40;21.60
34815;DHT22;21030;53.912;15.214;2023-04-03T07:03:42;28.30;21.50
34815;DHT22;21030;53.912;15.214;2023-04-03T07:06:13;29.00;21.20
34815;DHT22;21030;53.912;15.214;2023-04-03T07:08:40;29.20;20.70
34815;DHT22;21030;53.912;15.214;2023-04-03T07:11:10;29.40;20.50
34815;DHT22;21030;53.912;15.214;2023-04-03T07:13:38;29.40;20.40
34815;DHT22;21030;53.912;15.214;2023-04-03T07:16:06;29.60;20.60
34815;DHT22;21030;53.912;15.214;2023-04-03T07:18:34;29.60;21.10
34815;DHT22;21030;53.912;15.214;2023-04-03T07:21:02;29.80;20.40
34815;DHT22;21030;53.912;15.214;2023-04-03T07:23:29;29.40;20.30
34815;DHT22;21030;53.912;15.214;2023-04-03T07:25:56;29.30;20.40
34815;DHT22;21030;53.912;15.214;2023-04-03T07:28:24;29.10;20.90
34815;DHT22;21030;53.912;15.214;2023-04-03T07:31:00;29.40;20.60
34815;DHT22;21030;53.912;15.214;2023-04-03T07:33:28;29.80;20.30
34815;DHT22;21030;53.912;15.214;2023-04-03T07:35:55;30.20;19.90
34815;DHT22;21030;53.912;15.214;2023-04-03T07:38:22;29.90;19.70
34815;DHT22;21030;53.912;15.214;2023-04-03T07:40:50;29.90;19.50
34815;DHT22;21030;53.912;15.214;2023-04-03T07:43:20;30.30;19.50
34815;DHT22;21030;53.912;15.214;2023-04-03T07:45:49;30.90;19.40
34815;DHT22;21030;53.912;15.214;2023-04-03T07:48:22;30.60;19.00
34815;DHT22;21030;53.912;15.214;2023-04-03T07:50:49;29.30;18.90
34815;DHT22;21030;53.912;15.214;2023-04-03T07:53:17;29.10;19.40
34815;DHT22;21030;53.912;15.214;2023-04-03T07:55:48;28.90;19.60
34815;DHT22;21030;53.912;15.214;2023-04-03T07:58:17;29.60;19.40
34815;DHT22;21030;53.912;15.214;2023-04-03T08:00:45;29.50;19.10
34815;DHT22;21030;53.912;15.214;2023-04-03T08:03:14;29.80;19.30
34815;DHT22;21030;53.912;15.214;2023-04-03T08:05:45;30.30;18.80
34815;DHT22;21030;53.912;15.214;2023-04-03T08:08:14;30.50;18.80
34815;DHT22;21030;53.912;15.214;2023-04-03T08:10:43;30.60;18.60
34815;DHT22;21030;53.912;15.214;2023-04-03T08:13:14;30.40;18.80
34815;DHT22;21030;53.912;15.214;2023-04-03T08:15:41;29.40;18.90
34815;DHT22;21030;53.912;15.214;2023-04-03T08:18:09;28.50;19.60
34815;DHT22;21030;53.912;15.214;2023-04-03T08:20:38;27.80;19.90
34815;DHT22;21030;53.912;15.214;2023-04-03T08:23:07;27.20;20.30
34815;DHT22;21030;53.912;15.214;2023-04-03T08:25:41;27.40;20.50
34815;DHT22;21030;53.912;15.214;2023-04-03T08:28:11;26.70;20.90
34815;DHT22;21030;53.912;15.214;2023-04-03T08:30:42;26.60;21.80
34815;DHT22;21030;53.912;15.214;2023-04-03T08:33:10;26.50;21.80
34815;DHT22;21030;53.912;15.214;2023-04-03T08:35:41;27.00;22.10
34815;DHT22;21030;53.912;15.214;2023-04-03T08:38:10;27.40;21.60
34815;DHT22;21030;53.912;15.214;2023-04-03T08:40:38;27.40;21.10
34815;DHT22;21030;53.912;15.214;2023-04-03T08:45:53;22.90;25.20
34815;DHT22;21030;53.912;15.214;2023-04-03T08:48:27;21.90;26.50
34815;DHT22;21030;53.912;15.214;2023-04-03T08:51:02;22.40;27.10
34815;DHT22;21030;53.912;15.214;2023-04-03T08:53:40;25.10;26.00
34815;DHT22;21030;53.912;15.214;2023-04-03T08:56:09;26.90;24.10
34815;DHT22;21030;53.912;15.214;2023-04-03T08:58:49;28.70;23.20
34815;DHT22;21030;53.912;15.214;2023-04-03T09:01:23;28.90;22.20
34815;DHT22;21030;53.912;15.214;2023-04-03T09:03:51;30.00;21.90
34815;DHT22;21030;53.912;15.214;2023-04-03T09:06:29;30.50;20.70
34815;DHT22;21030;53.912;15.214;2023-04-03T09:09:37;31.60;20.00
34815;DHT22;21030;53.912;15.214;2023-04-03T09:12:18;32.70;19.10
34815;DHT22;21030;53.912;15.214;2023-04-03T09:20:37;30.70;18.50
34815;DHT22;21030;53.912;15.214;2023-04-03T09:26:12;28.50;19.10
34815;DHT22;21030;53.912;15.214;2023-04-03T09:28:41;28.50;19.40
34815;DHT22;21030;53.912;15.214;2023-04-03T09:31:24;27.40;20.20
34815;DHT22;21030;53.912;15.214;2023-04-03T09:33:58;27.90;20.20
34815;DHT22;21030;53.912;15.214;2023-04-03T09:36:50;27.30;20.00
34815;DHT22;21030;53.912;15.214;2023-04-03T09:39:19;27.70;20.30
34815;DHT22;21030;53.912;15.214;2023-04-03T09:42:14;27.40;20.30
34815;DHT22;21030;53.912;15.214;2023-04-03T09:45:04;27.20;20.30
34815;DHT22;21030;53.912;15.214;2023-04-03T09:47:33;27.80;20.70
34815;DHT22;21030;53.912;15.214;2023-04-03T09:52:42;28.70;20.70
34815;DHT22;21030;53.912;15.214;2023-04-03T09:55:17;28.50;20.80
34815;DHT22;21030;53.912;15.214;2023-04-03T09:57:45;28.40;21.10
34815;DHT22;21030;53.912;15.214;2023-04-03T10:00:36;28.10;21.20
34815;DHT22;21030;53.912;15.214;2023-04-03T10:03:08;27.70;21.40
34815;DHT22;21030;53.912;15.214;2023-04-03T10:05:50;28.90;21.40
34815;DHT22;21030;53.912;15.214;2023-04-03T10:08:25;29.90;21.10
34815;DHT22;21030;53.912;15.214;2023-04-03T10:11:06;30.40;20.60
34815;DHT22;21030;53.912;15.214;2023-04-03T10:13:34;29.80;20.10
34815;DHT22;21030;53.912;15.214;2023-04-03T10:16:18;28.60;20.20
34815;DHT22;21030;53.912;15.214;2023-04-03T10:24:25;28.40;19.70
34815;DHT22;21030;53.912;15.214;2023-04-03T10:27:13;27.70;19.60
34815;DHT22;21030;53.912;15.214;2023-04-03T10:32:45;28.20;20.00
34815;DHT22;21030;53.912;15.214;2023-04-03T10:35:23;28.30;19.80
34815;DHT22;21030;53.912;15.214;2023-04-03T10:41:07;28.80;19.00
34815;DHT22;21030;53.912;15.214;2023-04-03T10:46:27;29.70;19.50
34815;DHT22;21030;53.912;15.214;2023-04-03T10:49:30;30.20;19.50
34815;DHT22;21030;53.912;15.214;2023-04-03T10:52:37;30.90;19.70
34815;DHT22;21030;53.912;15.214;2023-04-03T10:56:06;32.00;19.50
34815;DHT22;21030;53.912;15.214;2023-04-03T10:58:18;32.00;18.50
34815;DHT22;21030;53.912;15.214;2023-04-03T11:00:49;31.60;18.00
34815;DHT22;21030;53.912;15.214;2023-04-03T11:03:29;30.00;17.90
34815;DHT22;21030;53.912;15.214;2023-04-03T11:06:01;31.10;18.90
34815;DHT22;21030;53.912;15.214;2023-04-03T11:08:34;31.90;18.70
34815;DHT22;21030;53.912;15.214;2023-04-03T11:11:08;32.50;18.00
34815;DHT22;21030;53.912;15.214;2023-04-03T11:16:04;30.60;17.10
34815;DHT22;21030;53.912;15.214;2023-04-03T11:18:48;31.20;17.40
34815;DHT22;21030;53.912;15.214;2023-04-03T11:21:21;29.90;17.00
34815;DHT22;21030;53.912;15.214;2023-04-03T11:23:52;30.20;17.00
34815;DHT22;21030;53.912;15.214;2023-04-03T11:26:23;29.30;17.00
34815;DHT22;21030;53.912;15.214;2023-04-03T11:28:59;29.00;17.70
34815;DHT22;21030;53.912;15.214;2023-04-03T11:36:55;28.40;19.70
34815;DHT22;21030;53.912;15.214;2023-04-03T11:39:31;28.10;20.50
34815;DHT22;21030;53.912;15.214;2023-04-03T11:50:55;30.70;18.90
34815;DHT22;21030;53.912;15.214;2023-04-03T11:53:39;31.30;18.90
34815;DHT22;21030;53.912;15.214;2023-04-03T12:01:54;31.50;17.80
34815;DHT22;21030;53.912;15.214;2023-04-03T12:04:24;32.60;17.70
34815;DHT22;21030;53.912;15.214;2023-04-03T12:07:11;33.30;17.50
34815;DHT22;21030;53.912;15.214;2023-04-03T12:12:55;31.80;16.20
34815;DHT22;21030;53.912;15.214;2023-04-03T12:21:11;30.20;18.20
34815;DHT22;21030;53.912;15.214;2023-04-03T12:32:29;32.00;16.50
34815;DHT22;21030;53.912;15.214;2023-04-03T12:38:11;32.00;16.80
34815;DHT22;21030;53.912;15.214;2023-04-03T12:46:45;33.40;15.90
34815;DHT22;21030;53.912;15.214;2023-04-03T12:49:35;33.90;15.50
34815;DHT22;21030;53.912;15.214;2023-04-03T12:52:06;33.10;15.00
34815;DHT22;21030;53.912;15.214;2023-04-03T12:54:40;33.30;15.60
34815;DHT22;21030;53.912;15.214;2023-04-03T12:57:19;33.50;16.10
34815;DHT22;21030;53.912;15.214;2023-04-03T12:59:47;33.40;15.20
34815;DHT22;21030;53.912;15.214;2023-04-03T13:02:32;32.60;15.70
34815;DHT22;21030;53.912;15.214;2023-04-03T13:05:09;32.30;16.40
34815;DHT22;21030;53.912;15.214;2023-04-03T13:07:41;31.80;16.70
34815;DHT22;21030;53.912;15.214;2023-04-03T13:17:52;30.70;17.20
34815;DHT22;21030;53.912;15.214;2023-04-03T13:20:32;30.80;17.10
34815;DHT22;21030;53.912;15.214;2023-04-03T13:23:08;30.70;17.10
34815;DHT22;21030;53.912;15.214;2023-04-03T13:25:41;29.40;16.70
34815;DHT22;21030;53.912;15.214;2023-04-03T13:28:15;29.80;17.70
34815;DHT22;21030;53.912;15.214;2023-04-03T13:31:04;30.50;17.70
34815;DHT22;21030;53.912;15.214;2023-04-03T13:33:34;30.30;17.50
34815;DHT22;21030;53.912;15.214;2023-04-03T13:36:11;31.30;17.50
34815;DHT22;21030;53.912;15.214;2023-04-03T13:38:43;30.60;17.10
34815;DHT22;21030;53.912;15.214;2023-04-03T13:41:37;30.40;17.40
34815;DHT22;21030;53.912;15.214;2023-04-03T13:46:55;29.50;17.10
34815;DHT22;21030;53.912;15.214;2023-04-03T13:49:36;29.80;17.70
34815;DHT22;21030;53.912;15.214;2023-04-03T13:52:29;29.50;18.10
34815;DHT22;21030;53.912;15.214;2023-04-03T13:55:00;29.10;18.50
34815;DHT22;21030;53.912;15.214;2023-04-03T13:57:28;28.40;18.50
34815;DHT22;21030;53.912;15.214;2023-04-03T13:59:56;28.80;19.00
34815;DHT22;21030;53.912;15.214;2023-04-03T14:02:33;29.40;18.40
34815;DHT22;21030;53.912;15.214;2023-04-03T14:05:02;29.90;18.10
34815;DHT22;21030;53.912;15.214;2023-04-03T14:07:31;29.80;18.10
34815;DHT22;21030;53.912;15.214;2023-04-03T14:09:58;28.90;18.10
34815;DHT22;21030;53.912;15.214;2023-04-03T14:12:37;29.30;18.40
34815;DHT22;21030;53.912;15.214;2023-04-03T14:15:20;28.60;18.70
34815;DHT22;21030;53.912;15.214;2023-04-03T14:17:49;28.40;18.80
34815;DHT22;21030;53.912;15.214;2023-04-03T14:20:21;27.30;18.90
34815;DHT22;21030;53.912;15.214;2023-04-03T14:22:49;28.50;18.80
34815;DHT22;21030;53.912;15.214;2023-04-03T14:25:17;29.10;18.70
34815;DHT22;21030;53.912;15.214;2023-04-03T14:27:47;29.80;18.30
34815;DHT22;21030;53.912;15.214;2023-04-03T14:30:28;29.00;18.00
34815;DHT22;21030;53.912;15.214;2023-04-03T14:32:55;29.30;18.10
34815;DHT22;21030;53.912;15.214;2023-04-03T14:35:23;29.90;18.10
34815;DHT22;21030;53.912;15.214;2023-04-03T14:37:52;29.80;17.80
34815;DHT22;21030;53.912;15.214;2023-04-03T14:40:23;30.10;17.60
34815;DHT22;21030;53.912;15.214;2023-04-03T14:42:51;30.30;17.60
34815;DHT22;21030;53.912;15.214;2023-04-03T14:45:22;31.40;17.00
34815;DHT22;21030;53.912;15.214;2023-04-03T14:47:52;31.00;16.70
34815;DHT22;21030;53.912;15.214;2023-04-03T14:50:23;30.90;16.90
34815;DHT22;21030;53.912;15.214;2023-04-03T14:52:52;32.30;16.80
34815;DHT22;21030;53.912;15.214;2023-04-03T14:55:22;33.20;16.50
34815;DHT22;21030;53.912;15.214;2023-04-03T14:57:50;33.20;16.00
34815;DHT22;21030;53.912;15.214;2023-04-03T15:00:20;32.60;16.10
34815;DHT22;21030;53.912;15.214;2023-04-03T15:02:49;32.30;16.30
34815;DHT22;21030;53.912;15.214;2023-04-03T15:05:18;32.00;16.40
34815;DHT22;21030;53.912;15.214;2023-04-03T15:07:54;31.30;16.50
34815;DHT22;21030;53.912;15.214;2023-04-03T15:10:28;30.30;17.00
34815;DHT22;21030;53.912;15.214;2023-04-03T15:12:55;29.90;17.40
34815;DHT22;21030;53.912;15.214;2023-04-03T15:15:24;29.30;17.80
34815;DHT22;21030;53.912;15.214;2023-04-03T15:17:54;29.00;18.10
34815;DHT22;21030;53.912;15.214;2023-04-03T15:20:24;28.80;18.40
34815;DHT22;21030;53.912;15.214;2023-04-03T15:22:52;28.20;18.60
34815;DHT22;21030;53.912;15.214;2023-04-03T15:25:19;28.00;18.80
34815;DHT22;21030;53.912;15.214;2023-04-03T15:27:46;27.40;19.00
34815;DHT22;21030;53.912;15.214;2023-04-03T15:30:16;26.80;19.30
34815;DHT22;21030;53.912;15.214;2023-04-03T15:32:44;28.10;19.30
34815;DHT22;21030;53.912;15.214;2023-04-03T15:35:11;27.20;18.60
34815;DHT22;21030;53.912;15.214;2023-04-03T15:37:38;26.90;19.10
34815;DHT22;21030;53.912;15.214;2023-04-03T15:40:07;27.70;19.00
34815;DHT22;21030;53.912;15.214;2023-04-03T15:42:35;27.50;18.90
34815;DHT22;21030;53.912;15.214;2023-04-03T15:45:02;28.10;19.20
34815;DHT22;21030;53.912;15.214;2023-04-03T15:47:29;28.40;18.30
34815;DHT22;21030;53.912;15.214;2023-04-03T15:49:56;29.20;18.20
34815;DHT22;21030;53.912;15.214;2023-04-03T15:52:24;29.60;18.00
34815;DHT22;21030;53.912;15.214;2023-04-03T15:54:51;29.00;17.80
34815;DHT22;21030;53.912;15.214;2023-04-03T15:57:18;29.80;17.80
34815;DHT22;21030;53.912;15.214;2023-04-03T15:59:45;29.50;17.80
34815;DHT22;21030;53.912;15.214;2023-04-03T16:02:12;29.20;17.60
34815;DHT22;21030;53.912;15.214;2023-04-03T16:04:40;29.10;17.80
34815;DHT22;21030;53.912;15.214;2023-04-03T16:07:07;29.20;17.70
34815;DHT22;21030;53.912;15.214;2023-04-03T16:09:35;29.40;17.90
34815;DHT22;21030;53.912;15.214;2023-04-03T16:12:03;29.30;17.60
34815;DHT22;21030;53.912;15.214;2023-04-03T16:14:30;28.30;17.60
34815;DHT22;21030;53.912;15.214;2023-04-03T16:16:58;27.70;18.20
34815;DHT22;21030;53.912;15.214;2023-04-03T16:19:29;28.20;18.40
34815;DHT22;21030;53.912;15.214;2023-04-03T16:21:57;28.80;18.20
34815;DHT22;21030;53.912;15.214;2023-04-03T16:24:24;28.80;17.90
34815;DHT22;21030;53.912;15.214;2023-04-03T16:26:51;28.70;18.00
34815;DHT22;21030;53.912;15.214;2023-04-03T16:29:20;28.80;18.00
34815;DHT22;21030;53.912;15.214;2023-04-03T16:31:47;28.10;18.30
34815;DHT22;21030;53.912;15.214;2023-04-03T16:34:15;27.80;18.80
34815;DHT22;21030;53.912;15.214;2023-04-03T16:36:42;27.40;19.20
34815;DHT22;21030;53.912;15.214;2023-04-03T16:39:10;27.40;19.20
34815;DHT22;21030;53.912;15.214;2023-04-03T16:41:37;27.40;19.00
34815;DHT22;21030;53.912;15.214;2023-04-03T16:44:04;27.10;19.00
34815;DHT22;21030;53.912;15.214;2023-04-03T16:46:34;27.80;18.90
34815;DHT22;21030;53.912;15.214;2023-04-03T16:49:01;27.70;18.70
34815;DHT22;21030;53.912;15.214;2023-04-03T16:51:28;26.80;19.00
34815;DHT22;21030;53.912;15.214;2023-04-03T16:53:55;26.90;19.10
34815;DHT22;21030;53.912;15.214;2023-04-03T16:56:22;27.40;19.10
34815;DHT22;21030;53.912;15.214;2023-04-03T16:58:49;27.90;19.00
34815;DHT22;21030;53.912;15.214;2023-04-03T17:01:18;28.20;19.00
34815;DHT22;21030;53.912;15.214;2023-04-03T17:03:46;28.20;18.60
34815;DHT22;21030;53.912;15.214;2023-04-03T17:06:17;28.20;18.70
34815;DHT22;21030;53.912;15.214;2023-04-03T17:08:47;27.80;18.80
34815;DHT22;21030;53.912;15.214;2023-04-03T17:11:16;27.40;19.10